Flight Track Log - Related Links

Times and Time Zones

All times are in EDT time to prevent confusion due to time zone crossing. See the DAL3796 flight status page for this flight to view local times or setup timezone preferences in your user account.

Time Position Orientation Groundspeed Altitude Reporting Facility
EDT Latitude Longitude Course Direction KTS MPH feet Rate Location/Type
Thu 08:40:44 PM 42.2081 -83.3675 203° Southwest 140 161 1,500  Level Cleveland Center
Thu 08:41:09 PM 42.1928 -83.3764 203° Southwest 162 186 2,200 1,880 Climbing Cleveland Center
Thu 08:42:07 PM 42.1567 -83.3969 203° Southwest 192 221 4,100 2,459 Climbing Cleveland Center
Thu 08:42:10 PM 42.1422 -83.4061 205° Southwest 209 241 4,700 2,419 Climbing Cleveland Center
Thu 08:43:09 PM 42.0875 -83.4433 207° Southwest 248 285 6,600 2,507 Climbing Cleveland Center
Thu 08:43:17 PM 42.0753 -83.4583 222° Southwest 258 297 7,500 2,952 Climbing Cleveland Center
Thu 08:44:12 PM 42.0281 -83.4956 210° Southwest 262 302 9,700 2,308 Climbing Cleveland Center
Thu 08:45:14 PM 41.9542 -83.5583 212° Southwest 288 331 12,000 2,177 Climbing Cleveland Center
Thu 08:46:16 PM 41.8781 -83.6222 212° Southwest 315 362 14,200 2,032 Climbing Cleveland Center
Thu 08:47:18 PM 41.8017 -83.6867 212° Southwest 323 372 16,200 1,742 Climbing Cleveland Center
Thu 08:48:20 PM 41.7242 -83.7536 213° Southwest 330 380 17,800 1,839 Climbing Cleveland Center
Thu 08:49:22 PM 41.6267 -83.8325 211° Southwest 340 391 20,000 1,790 Climbing Cleveland Center
Thu 08:50:24 PM 41.5456 -83.8981 211° Southwest 341 392 21,500 1,355 Climbing Cleveland Center
Thu 08:51:26 PM 41.4631 -83.9639 211° Southwest 345 397 22,800 1,210 Climbing Cleveland Center
Thu 08:52:28 PM 41.3769 -84.0300 210° Southwest 355 409 24,000 1,161 Climbing Cleveland Center
Thu 08:53:30 PM 41.2786 -84.1069 210° Southwest 359 413 25,200 968 Climbing Cleveland Center
Thu 08:54:32 PM 41.2292 -84.2100 237° Southwest 333 383 26,000 387 Climbing Cleveland Center
Thu 08:55:34 PM 41.1983 -84.3297 251° West 340 391 26,000  Level Cleveland Center
Thu 08:56:36 PM 41.1661 -84.4556 251° West 355 409 26,000  Level Cleveland Center
Thu 08:57:38 PM 41.1339 -84.5858 252° West 369 425 26,000  Level Cleveland Center
Thu 08:58:40 PM 41.1014 -84.7164 252° West 370 426 26,000  Level Cleveland Center
Thu 08:59:42 PM 41.0664 -84.8478 251° West 376 433 26,000  Level Cleveland Center
Thu 09:00:44 PM 41.0258 -85.0081 252° West 380 437 26,000  Level Cleveland Center
Thu 09:01:46 PM 40.9908 -85.1408 251° West 381 438 26,000  Level Cleveland Center
Thu 09:02:48 PM 40.9686 -85.2778 258° West 378 435 26,000  Level Cleveland Center
Thu 09:03:49 PM 40.9519 -85.4186 261° West 382 440 26,000  Level Cleveland Center
Thu 09:04:51 PM 40.9344 -85.5586 261° West 384 442 26,000  Level Cleveland Center
Thu 09:05:53 PM 40.9169 -85.6989 261° West 386 444 26,000  Level Cleveland Center
Thu 09:06:55 PM 40.8989 -85.8383 260° West 384 442 26,000  Level Cleveland Center
Thu 09:07:56 PM 40.8808 -85.9817 261° West 391 450 26,000  Level Cleveland Center
Thu 09:08:58 PM 40.8594 -86.1522 261° West 392 451 26,000  Level Cleveland Center
Thu 09:10:25 PM 40.8328 -86.3503 260° West 395 455 26,000  Level Chicago Center
Thu 09:11:27 PM 40.8139 -86.4922 260° West 394 453 26,000  Level Chicago Center
Thu 09:12:29 PM 40.7958 -86.6344 261° West 394 453 26,000  Level Chicago Center
Thu 09:13:31 PM 40.7742 -86.7983 260° West 394 453 26,000  Level Chicago Center
Thu 09:14:33 PM 40.7556 -86.9414 260° West 396 456 26,000 -290 Level Chicago Center
Thu 09:15:35 PM 40.7347 -87.0856 259° West 400 460 25,400 -1,065 Descending Chicago Center
Thu 09:16:37 PM 40.7144 -87.2356 260° West 397 457 23,800 -1,790 Descending Chicago Center
Thu 09:17:39 PM 40.6961 -87.3650 259° West 387 445 21,700 -2,274 Descending Chicago Center
Thu 09:18:41 PM 40.6806 -87.4875 261° West 349 402 19,100 -2,371 Descending Chicago Center
Thu 09:19:43 PM 40.6572 -87.6483 259° West 372 428 16,800 -1,984 Descending Chicago Center
Thu 09:20:45 PM 40.6392 -87.7778 260° West 363 418 15,000 -1,742 Descending Chicago Center
Thu 09:21:47 PM 40.6197 -87.9078 259° West 360 414 13,200 -1,645 Descending Chicago Center
Thu 09:22:49 PM 40.6022 -88.0369 260° West 360 414 11,600 -1,113 Descending Chicago Center
Thu 09:23:51 PM 40.5831 -88.1606 258° West 347 399 10,900 -871 Descending Chicago Center
Thu 09:24:53 PM 40.5694 -88.2597 260° West 281 323 9,800 -1,548 Descending Chicago Center
Thu 09:25:55 PM 40.5550 -88.3669 260° West 250 288 7,700 -1,790 Descending Chicago Center
Thu 09:26:57 PM 40.5425 -88.4536 259° West 244 281 6,100 -1,548 Descending Chicago Center
Thu 09:27:59 PM 40.5319 -88.5356 260° West 233 268 4,500 -1,512 Descending Chicago Center
Thu 09:29:00 PM 40.5192 -88.6164 258° West 229 264 3,000 -732 Descending Chicago Center
Thu 09:30:02 PM 40.5014 -88.6825 251° West 198 228 3,000  Level Chicago Center
Thu 09:31:05 PM 40.4825 -88.7436 248° West 189 217 3,000 -194 Level Chicago Center
Thu 09:32:06 PM 40.4672 -88.8067 252° West 164 189 2,600 -537 Descending Chicago Center
Thu 09:33:08 PM 40.4631 -88.8511 263° West 142 163 1,900 -677 Descending Chicago Center
Thu 09:34:10 PM 40.4728 -88.8944 286° West 130 150 1,200 -435 Descending Chicago Center
Thu 09:35:12 PM 40.4831 -88.9375 287° West 129 148 1,000 -194 Descending Chicago Center
Thu 09:37:00 PM 40.4771 -88.9159 246° West  Level Estimated

Login

Don't have an account? Register now (free) for customized features, flight alerts, and more!